sensor_id;sensor_type;location;lat;lon;timestamp;P1;durP1;ratioP1;P2;durP2;ratioP2
2129;SDS011;1071;52.544;13.374;2022-11-15T00:01:09;35.47;;;31.10;;
2129;SDS011;1071;52.544;13.374;2022-11-15T00:03:41;35.50;;;28.77;;
2129;SDS011;1071;52.544;13.374;2022-11-15T00:06:10;36.45;;;29.05;;
2129;SDS011;1071;52.544;13.374;2022-11-15T00:08:37;32.72;;;27.83;;
2129;SDS011;1071;52.544;13.374;2022-11-15T00:11:09;35.00;;;28.20;;
2129;SDS011;1071;52.544;13.374;2022-11-15T00:13:46;30.63;;;27.33;;
2129;SDS011;1071;52.544;13.374;2022-11-15T00:16:13;34.30;;;27.33;;
2129;SDS011;1071;52.544;13.374;2022-11-15T00:18:41;36.28;;;29.55;;
2129;SDS011;1071;52.544;13.374;2022-11-15T00:21:10;32.67;;;27.45;;
2129;SDS011;1071;52.544;13.374;2022-11-15T00:23:39;35.65;;;29.42;;
2129;SDS011;1071;52.544;13.374;2022-11-15T00:26:06;35.20;;;29.13;;
2129;SDS011;1071;52.544;13.374;2022-11-15T00:28:36;32.78;;;27.15;;
2129;SDS011;1071;52.544;13.374;2022-11-15T00:31:04;34.80;;;27.77;;
2129;SDS011;1071;52.544;13.374;2022-11-15T00:33:32;33.92;;;26.88;;
2129;SDS011;1071;52.544;13.374;2022-11-15T00:36:00;36.55;;;30.67;;
2129;SDS011;1071;52.544;13.374;2022-11-15T00:38:37;35.88;;;28.15;;
2129;SDS011;1071;52.544;13.374;2022-11-15T00:41:05;32.88;;;28.05;;
2129;SDS011;1071;52.544;13.374;2022-11-15T00:43:33;32.95;;;27.33;;
2129;SDS011;1071;52.544;13.374;2022-11-15T00:46:05;33.20;;;28.92;;
2129;SDS011;1071;52.544;13.374;2022-11-15T00:48:33;32.50;;;26.80;;
2129;SDS011;1071;52.544;13.374;2022-11-15T00:51:00;31.40;;;27.83;;
2129;SDS011;1071;52.544;13.374;2022-11-15T00:53:27;36.85;;;28.85;;
2129;SDS011;1071;52.544;13.374;2022-11-15T00:55:56;36.22;;;28.80;;
2129;SDS011;1071;52.544;13.374;2022-11-15T00:58:23;33.40;;;29.60;;
2129;SDS011;1071;52.544;13.374;2022-11-15T01:00:50;34.88;;;28.70;;
2129;SDS011;1071;52.544;13.374;2022-11-15T01:03:17;38.55;;;29.73;;
2129;SDS011;1071;52.544;13.374;2022-11-15T01:05:44;36.03;;;28.25;;
2129;SDS011;1071;52.544;13.374;2022-11-15T01:08:11;35.65;;;29.90;;
2129;SDS011;1071;52.544;13.374;2022-11-15T01:10:39;36.05;;;31.23;;
2129;SDS011;1071;52.544;13.374;2022-11-15T01:13:08;33.03;;;27.88;;
2129;SDS011;1071;52.544;13.374;2022-11-15T01:15:38;33.30;;;28.48;;
2129;SDS011;1071;52.544;13.374;2022-11-15T01:18:06;39.72;;;31.23;;
2129;SDS011;1071;52.544;13.374;2022-11-15T01:20:46;34.75;;;28.45;;
2129;SDS011;1071;52.544;13.374;2022-11-15T01:23:14;41.10;;;31.40;;
2129;SDS011;1071;52.544;13.374;2022-11-15T01:25:41;34.63;;;28.15;;
2129;SDS011;1071;52.544;13.374;2022-11-15T01:28:09;38.45;;;32.22;;
2129;SDS011;1071;52.544;13.374;2022-11-15T01:30:36;36.72;;;29.95;;
2129;SDS011;1071;52.544;13.374;2022-11-15T01:33:04;38.67;;;30.00;;
2129;SDS011;1071;52.544;13.374;2022-11-15T01:35:31;38.75;;;29.17;;
2129;SDS011;1071;52.544;13.374;2022-11-15T01:37:58;36.20;;;29.08;;
2129;SDS011;1071;52.544;13.374;2022-11-15T01:40:25;36.25;;;31.33;;
2129;SDS011;1071;52.544;13.374;2022-11-15T01:42:52;37.35;;;31.13;;
2129;SDS011;1071;52.544;13.374;2022-11-15T01:45:21;36.35;;;28.05;;
2129;SDS011;1071;52.544;13.374;2022-11-15T01:47:50;31.60;;;28.13;;
2129;SDS011;1071;52.544;13.374;2022-11-15T01:50:19;35.78;;;28.05;;
2129;SDS011;1071;52.544;13.374;2022-11-15T01:52:49;39.10;;;30.08;;
2129;SDS011;1071;52.544;13.374;2022-11-15T01:55:17;32.72;;;28.00;;
2129;SDS011;1071;52.544;13.374;2022-11-15T01:57:48;34.67;;;27.48;;
2129;SDS011;1071;52.544;13.374;2022-11-15T02:00:18;35.00;;;28.38;;
2129;SDS011;1071;52.544;13.374;2022-11-15T02:02:48;36.58;;;27.95;;
2129;SDS011;1071;52.544;13.374;2022-11-15T02:05:19;35.63;;;29.10;;
2129;SDS011;1071;52.544;13.374;2022-11-15T02:07:46;40.92;;;32.30;;
2129;SDS011;1071;52.544;13.374;2022-11-15T02:10:17;40.40;;;29.98;;
2129;SDS011;1071;52.544;13.374;2022-11-15T02:12:46;37.58;;;29.60;;
2129;SDS011;1071;52.544;13.374;2022-11-15T02:15:14;36.25;;;28.92;;
2129;SDS011;1071;52.544;13.374;2022-11-15T02:20:47;35.03;;;28.15;;
2129;SDS011;1071;52.544;13.374;2022-11-15T02:23:34;38.33;;;31.15;;
2129;SDS011;1071;52.544;13.374;2022-11-15T02:29:42;38.03;;;28.65;;
2129;SDS011;1071;52.544;13.374;2022-11-15T02:32:26;35.47;;;28.63;;
2129;SDS011;1071;52.544;13.374;2022-11-15T02:35:02;35.15;;;28.00;;
2129;SDS011;1071;52.544;13.374;2022-11-15T02:37:39;34.22;;;28.35;;
2129;SDS011;1071;52.544;13.374;2022-11-15T02:40:11;32.17;;;26.80;;
2129;SDS011;1071;52.544;13.374;2022-11-15T02:42:45;30.92;;;25.95;;
2129;SDS011;1071;52.544;13.374;2022-11-15T02:45:37;32.25;;;25.92;;
2129;SDS011;1071;52.544;13.374;2022-11-15T02:48:09;37.45;;;29.13;;
2129;SDS011;1071;52.544;13.374;2022-11-15T02:50:38;39.00;;;29.38;;
2129;SDS011;1071;52.544;13.374;2022-11-15T02:53:06;36.22;;;29.67;;
2129;SDS011;1071;52.544;13.374;2022-11-15T02:55:34;34.28;;;27.90;;
2129;SDS011;1071;52.544;13.374;2022-11-15T02:58:11;36.42;;;27.90;;
2129;SDS011;1071;52.544;13.374;2022-11-15T03:00:50;31.70;;;27.75;;
2129;SDS011;1071;52.544;13.374;2022-11-15T03:06:22;35.47;;;29.67;;
2129;SDS011;1071;52.544;13.374;2022-11-15T03:08:59;35.25;;;26.33;;
2129;SDS011;1071;52.544;13.374;2022-11-15T03:11:32;33.15;;;26.55;;
2129;SDS011;1071;52.544;13.374;2022-11-15T03:14:04;33.63;;;27.70;;
2129;SDS011;1071;52.544;13.374;2022-11-15T03:16:40;34.78;;;28.27;;
2129;SDS011;1071;52.544;13.374;2022-11-15T03:19:13;36.38;;;28.77;;
2129;SDS011;1071;52.544;13.374;2022-11-15T03:21:43;31.85;;;27.40;;
2129;SDS011;1071;52.544;13.374;2022-11-15T03:24:12;30.52;;;27.23;;
2129;SDS011;1071;52.544;13.374;2022-11-15T03:26:42;31.00;;;26.48;;
2129;SDS011;1071;52.544;13.374;2022-11-15T03:29:12;36.65;;;29.02;;
2129;SDS011;1071;52.544;13.374;2022-11-15T03:31:44;32.63;;;26.77;;
2129;SDS011;1071;52.544;13.374;2022-11-15T03:34:15;34.15;;;29.17;;
2129;SDS011;1071;52.544;13.374;2022-11-15T03:36:52;34.13;;;28.77;;
2129;SDS011;1071;52.544;13.374;2022-11-15T03:39:20;36.63;;;29.67;;
2129;SDS011;1071;52.544;13.374;2022-11-15T03:41:49;35.20;;;28.60;;
2129;SDS011;1071;52.544;13.374;2022-11-15T03:44:26;34.10;;;27.50;;
2129;SDS011;1071;52.544;13.374;2022-11-15T03:47:03;30.55;;;26.40;;
2129;SDS011;1071;52.544;13.374;2022-11-15T03:49:36;32.60;;;26.40;;
2129;SDS011;1071;52.544;13.374;2022-11-15T03:52:08;31.95;;;26.42;;
2129;SDS011;1071;52.544;13.374;2022-11-15T03:54:44;30.63;;;25.65;;
2129;SDS011;1071;52.544;13.374;2022-11-15T03:57:14;39.47;;;30.25;;
2129;SDS011;1071;52.544;13.374;2022-11-15T03:59:41;33.90;;;29.02;;
2129;SDS011;1071;52.544;13.374;2022-11-15T04:02:08;34.58;;;28.80;;
2129;SDS011;1071;52.544;13.374;2022-11-15T04:04:37;34.00;;;26.23;;
2129;SDS011;1071;52.544;13.374;2022-11-15T04:07:04;29.98;;;26.60;;
2129;SDS011;1071;52.544;13.374;2022-11-15T04:09:31;35.58;;;26.50;;
2129;SDS011;1071;52.544;13.374;2022-11-15T04:11:58;31.67;;;25.80;;
2129;SDS011;1071;52.544;13.374;2022-11-15T04:14:25;33.97;;;26.23;;
2129;SDS011;1071;52.544;13.374;2022-11-15T04:16:52;33.60;;;25.90;;
2129;SDS011;1071;52.544;13.374;2022-11-15T04:19:19;32.45;;;25.27;;
2129;SDS011;1071;52.544;13.374;2022-11-15T04:22:07;31.55;;;26.65;;
2129;SDS011;1071;52.544;13.374;2022-11-15T04:24:51;31.75;;;27.23;;
2129;SDS011;1071;52.544;13.374;2022-11-15T04:27:18;32.10;;;26.75;;
2129;SDS011;1071;52.544;13.374;2022-11-15T04:29:45;33.88;;;28.15;;
2129;SDS011;1071;52.544;13.374;2022-11-15T04:32:12;34.75;;;28.95;;
2129;SDS011;1071;52.544;13.374;2022-11-15T04:34:39;30.55;;;27.02;;
2129;SDS011;1071;52.544;13.374;2022-11-15T04:37:08;32.10;;;25.52;;
2129;SDS011;1071;52.544;13.374;2022-11-15T04:39:37;29.95;;;24.30;;
2129;SDS011;1071;52.544;13.374;2022-11-15T04:42:05;28.52;;;25.42;;
2129;SDS011;1071;52.544;13.374;2022-11-15T04:44:32;32.67;;;24.77;;
2129;SDS011;1071;52.544;13.374;2022-11-15T04:47:00;35.15;;;28.85;;
2129;SDS011;1071;52.544;13.374;2022-11-15T04:49:27;30.42;;;25.30;;
2129;SDS011;1071;52.544;13.374;2022-11-15T04:51:54;33.10;;;26.40;;
2129;SDS011;1071;52.544;13.374;2022-11-15T04:54:23;32.47;;;27.48;;
2129;SDS011;1071;52.544;13.374;2022-11-15T04:56:50;35.35;;;25.60;;
2129;SDS011;1071;52.544;13.374;2022-11-15T04:59:17;32.25;;;25.42;;
2129;SDS011;1071;52.544;13.374;2022-11-15T05:01:44;35.88;;;27.17;;
2129;SDS011;1071;52.544;13.374;2022-11-15T05:04:11;31.13;;;25.05;;
2129;SDS011;1071;52.544;13.374;2022-11-15T05:06:47;33.20;;;26.08;;
2129;SDS011;1071;52.544;13.374;2022-11-15T05:09:15;32.20;;;26.02;;
2129;SDS011;1071;52.544;13.374;2022-11-15T05:11:44;32.88;;;26.30;;
2129;SDS011;1071;52.544;13.374;2022-11-15T05:14:11;30.83;;;25.88;;
2129;SDS011;1071;52.544;13.374;2022-11-15T05:16:38;33.67;;;27.08;;
2129;SDS011;1071;52.544;13.374;2022-11-15T05:19:06;30.40;;;25.48;;
2129;SDS011;1071;52.544;13.374;2022-11-15T05:21:33;34.03;;;27.30;;
2129;SDS011;1071;52.544;13.374;2022-11-15T05:24:01;30.88;;;25.42;;
2129;SDS011;1071;52.544;13.374;2022-11-15T05:26:28;33.30;;;27.42;;
2129;SDS011;1071;52.544;13.374;2022-11-15T05:28:57;31.45;;;25.52;;
2129;SDS011;1071;52.544;13.374;2022-11-15T05:31:25;34.28;;;27.33;;
2129;SDS011;1071;52.544;13.374;2022-11-15T05:33:53;34.38;;;26.70;;
2129;SDS011;1071;52.544;13.374;2022-11-15T05:36:25;35.78;;;27.27;;
2129;SDS011;1071;52.544;13.374;2022-11-15T05:38:56;33.25;;;27.60;;
2129;SDS011;1071;52.544;13.374;2022-11-15T05:41:24;33.22;;;26.73;;
2129;SDS011;1071;52.544;13.374;2022-11-15T05:43:57;33.28;;;27.70;;
2129;SDS011;1071;52.544;13.374;2022-11-15T05:46:25;35.47;;;29.13;;
2129;SDS011;1071;52.544;13.374;2022-11-15T05:48:53;30.50;;;25.33;;
2129;SDS011;1071;52.544;13.374;2022-11-15T05:51:20;32.85;;;23.85;;
2129;SDS011;1071;52.544;13.374;2022-11-15T05:53:50;30.33;;;27.02;;
2129;SDS011;1071;52.544;13.374;2022-11-15T05:56:18;30.95;;;26.17;;
2129;SDS011;1071;52.544;13.374;2022-11-15T05:58:45;28.40;;;24.60;;
2129;SDS011;1071;52.544;13.374;2022-11-15T06:01:14;28.50;;;23.48;;
2129;SDS011;1071;52.544;13.374;2022-11-15T06:03:41;29.23;;;24.42;;
2129;SDS011;1071;52.544;13.374;2022-11-15T06:06:11;32.88;;;26.63;;
2129;SDS011;1071;52.544;13.374;2022-11-15T06:08:38;32.50;;;26.08;;
2129;SDS011;1071;52.544;13.374;2022-11-15T06:11:06;33.97;;;26.60;;
2129;SDS011;1071;52.544;13.374;2022-11-15T06:13:34;30.85;;;25.80;;
2129;SDS011;1071;52.544;13.374;2022-11-15T06:16:01;37.38;;;27.92;;
2129;SDS011;1071;52.544;13.374;2022-11-15T06:18:31;30.80;;;26.90;;
2129;SDS011;1071;52.544;13.374;2022-11-15T06:20:59;30.73;;;25.05;;
2129;SDS011;1071;52.544;13.374;2022-11-15T06:23:30;30.38;;;25.17;;
2129;SDS011;1071;52.544;13.374;2022-11-15T06:25:58;28.60;;;24.95;;
2129;SDS011;1071;52.544;13.374;2022-11-15T06:28:27;32.95;;;28.58;;
2129;SDS011;1071;52.544;13.374;2022-11-15T06:30:55;32.90;;;25.73;;
2129;SDS011;1071;52.544;13.374;2022-11-15T06:33:29;28.50;;;25.40;;
2129;SDS011;1071;52.544;13.374;2022-11-15T06:35:59;34.03;;;27.05;;
2129;SDS011;1071;52.544;13.374;2022-11-15T06:38:27;33.88;;;26.33;;
2129;SDS011;1071;52.544;13.374;2022-11-15T06:40:54;30.27;;;24.42;;
2129;SDS011;1071;52.544;13.374;2022-11-15T06:43:21;35.95;;;27.65;;
2129;SDS011;1071;52.544;13.374;2022-11-15T06:45:48;31.85;;;26.55;;
2129;SDS011;1071;52.544;13.374;2022-11-15T06:48:16;31.17;;;24.48;;
2129;SDS011;1071;52.544;13.374;2022-11-15T06:50:50;27.92;;;23.95;;
2129;SDS011;1071;52.544;13.374;2022-11-15T06:53:22;32.13;;;25.60;;
2129;SDS011;1071;52.544;13.374;2022-11-15T06:55:50;31.08;;;25.35;;
2129;SDS011;1071;52.544;13.374;2022-11-15T06:58:17;34.83;;;30.25;;
2129;SDS011;1071;52.544;13.374;2022-11-15T07:00:44;36.00;;;28.65;;
2129;SDS011;1071;52.544;13.374;2022-11-15T07:03:11;30.92;;;26.85;;
2129;SDS011;1071;52.544;13.374;2022-11-15T07:05:38;33.97;;;26.73;;
2129;SDS011;1071;52.544;13.374;2022-11-15T07:08:07;32.10;;;25.80;;
2129;SDS011;1071;52.544;13.374;2022-11-15T07:10:34;37.53;;;27.65;;
2129;SDS011;1071;52.544;13.374;2022-11-15T07:13:01;33.08;;;27.83;;
2129;SDS011;1071;52.544;13.374;2022-11-15T07:15:28;36.00;;;27.42;;
2129;SDS011;1071;52.544;13.374;2022-11-15T07:17:55;34.15;;;26.63;;
2129;SDS011;1071;52.544;13.374;2022-11-15T07:20:26;34.58;;;27.02;;
2129;SDS011;1071;52.544;13.374;2022-11-15T07:22:59;35.28;;;27.58;;
2129;SDS011;1071;52.544;13.374;2022-11-15T07:25:35;35.53;;;27.83;;
2129;SDS011;1071;52.544;13.374;2022-11-15T07:28:02;37.22;;;27.33;;
2129;SDS011;1071;52.544;13.374;2022-11-15T07:30:30;33.35;;;26.70;;
2129;SDS011;1071;52.544;13.374;2022-11-15T07:32:57;32.72;;;25.58;;
2129;SDS011;1071;52.544;13.374;2022-11-15T07:35:26;32.22;;;26.48;;
2129;SDS011;1071;52.544;13.374;2022-11-15T07:37:55;31.33;;;24.90;;
2129;SDS011;1071;52.544;13.374;2022-11-15T07:40:23;33.80;;;26.52;;
2129;SDS011;1071;52.544;13.374;2022-11-15T07:42:55;34.88;;;26.70;;
2129;SDS011;1071;52.544;13.374;2022-11-15T07:45:30;33.47;;;26.13;;
2129;SDS011;1071;52.544;13.374;2022-11-15T07:47:59;33.60;;;28.55;;
2129;SDS011;1071;52.544;13.374;2022-11-15T07:50:27;35.28;;;29.00;;
2129;SDS011;1071;52.544;13.374;2022-11-15T07:56:10;31.40;;;25.75;;
2129;SDS011;1071;52.544;13.374;2022-11-15T07:58:39;30.33;;;25.15;;
2129;SDS011;1071;52.544;13.374;2022-11-15T08:01:06;29.95;;;25.65;;
2129;SDS011;1071;52.544;13.374;2022-11-15T08:03:35;25.25;;;22.25;;
2129;SDS011;1071;52.544;13.374;2022-11-15T08:06:05;35.03;;;27.90;;
2129;SDS011;1071;52.544;13.374;2022-11-15T08:08:32;31.80;;;26.60;;
2129;SDS011;1071;52.544;13.374;2022-11-15T08:11:00;28.98;;;23.55;;
2129;SDS011;1071;52.544;13.374;2022-11-15T08:13:27;34.47;;;28.30;;
2129;SDS011;1071;52.544;13.374;2022-11-15T08:15:58;32.17;;;25.27;;
2129;SDS011;1071;52.544;13.374;2022-11-15T08:18:25;37.72;;;27.58;;
2129;SDS011;1071;52.544;13.374;2022-11-15T08:20:52;30.40;;;26.13;;
2129;SDS011;1071;52.544;13.374;2022-11-15T08:23:19;35.95;;;29.98;;
2129;SDS011;1071;52.544;13.374;2022-11-15T08:25:46;28.58;;;25.23;;
2129;SDS011;1071;52.544;13.374;2022-11-15T08:28:15;27.00;;;23.15;;
2129;SDS011;1071;52.544;13.374;2022-11-15T08:30:42;32.92;;;27.95;;
2129;SDS011;1071;52.544;13.374;2022-11-15T08:33:12;28.73;;;23.60;;
2129;SDS011;1071;52.544;13.374;2022-11-15T08:35:40;34.38;;;28.48;;
2129;SDS011;1071;52.544;13.374;2022-11-15T08:38:08;31.75;;;27.52;;
2129;SDS011;1071;52.544;13.374;2022-11-15T08:40:35;32.92;;;25.65;;
2129;SDS011;1071;52.544;13.374;2022-11-15T08:43:03;38.60;;;29.02;;
2129;SDS011;1071;52.544;13.374;2022-11-15T08:45:30;30.52;;;25.20;;
2129;SDS011;1071;52.544;13.374;2022-11-15T08:47:57;27.83;;;22.90;;
2129;SDS011;1071;52.544;13.374;2022-11-15T08:50:28;24.80;;;21.63;;
2129;SDS011;1071;52.544;13.374;2022-11-15T08:52:55;24.77;;;20.90;;
2129;SDS011;1071;52.544;13.374;2022-11-15T08:55:22;27.83;;;23.48;;
2129;SDS011;1071;52.544;13.374;2022-11-15T08:57:49;26.25;;;22.50;;
2129;SDS011;1071;52.544;13.374;2022-11-15T09:00:17;25.73;;;21.40;;
2129;SDS011;1071;52.544;13.374;2022-11-15T09:02:45;24.73;;;21.17;;
2129;SDS011;1071;52.544;13.374;2022-11-15T09:05:12;28.25;;;22.30;;
2129;SDS011;1071;52.544;13.374;2022-11-15T09:07:43;25.08;;;22.38;;
2129;SDS011;1071;52.544;13.374;2022-11-15T09:10:09;22.40;;;18.85;;
2129;SDS011;1071;52.544;13.374;2022-11-15T09:12:37;22.80;;;20.30;;
2129;SDS011;1071;52.544;13.374;2022-11-15T09:15:04;22.58;;;19.70;;
2129;SDS011;1071;52.544;13.374;2022-11-15T09:17:32;22.77;;;20.38;;
2129;SDS011;1071;52.544;13.374;2022-11-15T09:19:59;21.70;;;18.55;;
2129;SDS011;1071;52.544;13.374;2022-11-15T09:22:26;26.35;;;21.23;;
2129;SDS011;1071;52.544;13.374;2022-11-15T09:24:54;24.55;;;20.75;;
2129;SDS011;1071;52.544;13.374;2022-11-15T09:27:21;24.50;;;21.00;;
2129;SDS011;1071;52.544;13.374;2022-11-15T09:29:49;24.70;;;19.95;;
2129;SDS011;1071;52.544;13.374;2022-11-15T09:32:16;25.23;;;21.30;;
2129;SDS011;1071;52.544;13.374;2022-11-15T09:34:49;22.40;;;19.73;;
2129;SDS011;1071;52.544;13.374;2022-11-15T09:37:19;25.00;;;21.10;;
2129;SDS011;1071;52.544;13.374;2022-11-15T09:39:46;25.10;;;21.05;;
2129;SDS011;1071;52.544;13.374;2022-11-15T09:42:28;19.70;;;17.60;;
2129;SDS011;1071;52.544;13.374;2022-11-15T09:45:09;21.92;;;18.80;;
2129;SDS011;1071;52.544;13.374;2022-11-15T09:48:06;21.88;;;17.38;;
2129;SDS011;1071;52.544;13.374;2022-11-15T09:50:54;21.17;;;18.70;;
2129;SDS011;1071;52.544;13.374;2022-11-15T09:53:26;25.60;;;21.35;;
2129;SDS011;1071;52.544;13.374;2022-11-15T09:55:58;21.88;;;18.00;;
2129;SDS011;1071;52.544;13.374;2022-11-15T09:58:30;22.42;;;20.08;;
2129;SDS011;1071;52.544;13.374;2022-11-15T10:01:02;22.55;;;18.83;;
2129;SDS011;1071;52.544;13.374;2022-11-15T10:03:34;21.75;;;18.60;;
2129;SDS011;1071;52.544;13.374;2022-11-15T10:06:08;21.73;;;18.75;;
2129;SDS011;1071;52.544;13.374;2022-11-15T10:08:44;19.88;;;16.70;;
2129;SDS011;1071;52.544;13.374;2022-11-15T10:11:18;21.02;;;18.75;;
2129;SDS011;1071;52.544;13.374;2022-11-15T10:13:50;23.88;;;19.95;;
2129;SDS011;1071;52.544;13.374;2022-11-15T10:19:26;21.42;;;18.80;;
2129;SDS011;1071;52.544;13.374;2022-11-15T10:22:02;24.17;;;18.02;;
2129;SDS011;1071;52.544;13.374;2022-11-15T10:24:41;24.00;;;20.48;;
2129;SDS011;1071;52.544;13.374;2022-11-15T10:27:11;22.60;;;17.73;;
2129;SDS011;1071;52.544;13.374;2022-11-15T10:29:43;27.33;;;19.33;;
2129;SDS011;1071;52.544;13.374;2022-11-15T10:32:12;21.23;;;17.42;;
2129;SDS011;1071;52.544;13.374;2022-11-15T10:34:40;19.83;;;17.73;;
2129;SDS011;1071;52.544;13.374;2022-11-15T10:37:07;20.42;;;16.95;;
2129;SDS011;1071;52.544;13.374;2022-11-15T10:39:34;18.92;;;16.90;;
2129;SDS011;1071;52.544;13.374;2022-11-15T10:42:14;21.67;;;19.10;;
2129;SDS011;1071;52.544;13.374;2022-11-15T10:44:45;19.50;;;17.35;;
2129;SDS011;1071;52.544;13.374;2022-11-15T10:50:01;18.25;;;16.42;;
2129;SDS011;1071;52.544;13.374;2022-11-15T10:52:34;19.33;;;17.20;;
2129;SDS011;1071;52.544;13.374;2022-11-15T10:55:06;21.95;;;18.67;;
2129;SDS011;1071;52.544;13.374;2022-11-15T10:57:49;20.48;;;17.10;;
2129;SDS011;1071;52.544;13.374;2022-11-15T11:00:27;18.42;;;15.95;;
2129;SDS011;1071;52.544;13.374;2022-11-15T11:03:02;19.35;;;16.40;;
2129;SDS011;1071;52.544;13.374;2022-11-15T11:05:33;21.60;;;18.75;;
2129;SDS011;1071;52.544;13.374;2022-11-15T11:08:03;20.25;;;18.15;;
2129;SDS011;1071;52.544;13.374;2022-11-15T11:10:36;18.55;;;15.98;;
2129;SDS011;1071;52.544;13.374;2022-11-15T11:13:13;19.90;;;16.27;;
2129;SDS011;1071;52.544;13.374;2022-11-15T11:15:42;16.15;;;14.45;;
2129;SDS011;1071;52.544;13.374;2022-11-15T11:18:12;18.55;;;14.95;;
2129;SDS011;1071;52.544;13.374;2022-11-15T11:20:47;17.00;;;15.32;;
2129;SDS011;1071;52.544;13.374;2022-11-15T11:23:24;19.85;;;17.13;;
2129;SDS011;1071;52.544;13.374;2022-11-15T11:26:07;20.08;;;18.00;;
2129;SDS011;1071;52.544;13.374;2022-11-15T11:28:47;20.20;;;18.05;;
2129;SDS011;1071;52.544;13.374;2022-11-15T11:31:28;23.33;;;19.65;;
2129;SDS011;1071;52.544;13.374;2022-11-15T11:34:09;19.80;;;17.33;;
2129;SDS011;1071;52.544;13.374;2022-11-15T11:36:44;19.13;;;16.40;;
2129;SDS011;1071;52.544;13.374;2022-11-15T11:39:21;16.40;;;14.75;;
2129;SDS011;1071;52.544;13.374;2022-11-15T11:42:00;19.73;;;16.83;;
2129;SDS011;1071;52.544;13.374;2022-11-15T11:44:34;17.47;;;15.60;;
2129;SDS011;1071;52.544;13.374;2022-11-15T11:47:10;16.73;;;14.93;;
2129;SDS011;1071;52.544;13.374;2022-11-15T11:49:39;19.45;;;15.85;;
2129;SDS011;1071;52.544;13.374;2022-11-15T11:52:12;19.73;;;17.70;;
2129;SDS011;1071;52.544;13.374;2022-11-15T11:54:46;19.53;;;17.63;;
2129;SDS011;1071;52.544;13.374;2022-11-15T11:57:22;20.60;;;18.40;;
2129;SDS011;1071;52.544;13.374;2022-11-15T11:59:57;18.33;;;16.42;;
2129;SDS011;1071;52.544;13.374;2022-11-15T12:02:30;19.52;;;17.42;;
2129;SDS011;1071;52.544;13.374;2022-11-15T12:05:08;19.50;;;17.58;;
2129;SDS011;1071;52.544;13.374;2022-11-15T12:07:40;19.70;;;17.75;;
2129;SDS011;1071;52.544;13.374;2022-11-15T12:10:14;24.57;;;18.57;;
2129;SDS011;1071;52.544;13.374;2022-11-15T12:12:49;18.88;;;17.00;;
2129;SDS011;1071;52.544;13.374;2022-11-15T12:15:23;19.27;;;17.17;;
2129;SDS011;1071;52.544;13.374;2022-11-15T12:18:00;17.47;;;15.53;;
2129;SDS011;1071;52.544;13.374;2022-11-15T12:20:30;17.00;;;15.30;;
2129;SDS011;1071;52.544;13.374;2022-11-15T12:23:01;15.63;;;14.13;;
2129;SDS011;1071;52.544;13.374;2022-11-15T12:25:33;14.43;;;12.93;;
2129;SDS011;1071;52.544;13.374;2022-11-15T12:28:13;15.20;;;12.90;;
2129;SDS011;1071;52.544;13.374;2022-11-15T12:30:44;19.15;;;17.15;;
2129;SDS011;1071;52.544;13.374;2022-11-15T12:33:34;16.77;;;14.67;;
2129;SDS011;1071;52.544;13.374;2022-11-15T12:36:04;17.87;;;16.00;;
2129;SDS011;1071;52.544;13.374;2022-11-15T12:41:31;20.03;;;17.93;;
2129;SDS011;1071;52.544;13.374;2022-11-15T12:43:59;18.57;;;16.67;;
2129;SDS011;1071;52.544;13.374;2022-11-15T12:52:40;19.77;;;16.52;;
2129;SDS011;1071;52.544;13.374;2022-11-15T12:55:46;18.37;;;15.63;;
2129;SDS011;1071;52.544;13.374;2022-11-15T12:58:55;17.97;;;16.10;;
2129;SDS011;1071;52.544;13.374;2022-11-15T13:04:23;16.92;;;15.25;;
2129;SDS011;1071;52.544;13.374;2022-11-15T13:06:56;17.08;;;15.35;;
2129;SDS011;1071;52.544;13.374;2022-11-15T13:15:33;18.63;;;15.38;;
2129;SDS011;1071;52.544;13.374;2022-11-15T13:20:59;17.48;;;15.00;;
2129;SDS011;1071;52.544;13.374;2022-11-15T13:23:50;18.90;;;17.00;;
2129;SDS011;1071;52.544;13.374;2022-11-15T13:26:21;19.60;;;17.50;;
2129;SDS011;1071;52.544;13.374;2022-11-15T13:28:49;21.08;;;17.30;;
2129;SDS011;1071;52.544;13.374;2022-11-15T13:31:29;20.88;;;15.98;;
2129;SDS011;1071;52.544;13.374;2022-11-15T13:34:15;18.52;;;16.65;;
2129;SDS011;1071;52.544;13.374;2022-11-15T13:36:50;28.63;;;20.20;;
2129;SDS011;1071;52.544;13.374;2022-11-15T13:39:25;20.15;;;18.15;;
2129;SDS011;1071;52.544;13.374;2022-11-15T13:41:54;18.92;;;16.88;;
2129;SDS011;1071;52.544;13.374;2022-11-15T13:44:22;18.88;;;17.08;;
2129;SDS011;1071;52.544;13.374;2022-11-15T13:47:01;16.88;;;15.18;;
2129;SDS011;1071;52.544;13.374;2022-11-15T13:49:29;17.70;;;14.87;;
2129;SDS011;1071;52.544;13.374;2022-11-15T13:51:57;18.13;;;15.43;;
2129;SDS011;1071;52.544;13.374;2022-11-15T13:54:27;19.55;;;16.50;;
2129;SDS011;1071;52.544;13.374;2022-11-15T13:56:56;17.83;;;15.77;;
2129;SDS011;1071;52.544;13.374;2022-11-15T13:59:28;17.60;;;15.70;;
2129;SDS011;1071;52.544;13.374;2022-11-15T14:01:58;17.23;;;15.48;;
2129;SDS011;1071;52.544;13.374;2022-11-15T14:04:29;17.70;;;15.57;;
2129;SDS011;1071;52.544;13.374;2022-11-15T14:07:14;17.30;;;15.50;;
2129;SDS011;1071;52.544;13.374;2022-11-15T14:09:43;19.67;;;17.20;;
2129;SDS011;1071;52.544;13.374;2022-11-15T14:12:22;15.55;;;13.95;;
2129;SDS011;1071;52.544;13.374;2022-11-15T14:14:52;16.95;;;14.90;;
2129;SDS011;1071;52.544;13.374;2022-11-15T14:17:21;17.48;;;15.48;;
2129;SDS011;1071;52.544;13.374;2022-11-15T14:20:01;15.68;;;14.02;;
2129;SDS011;1071;52.544;13.374;2022-11-15T14:22:29;17.55;;;14.65;;
2129;SDS011;1071;52.544;13.374;2022-11-15T14:25:07;16.42;;;14.48;;
2129;SDS011;1071;52.544;13.374;2022-11-15T14:27:41;15.20;;;13.30;;
2129;SDS011;1071;52.544;13.374;2022-11-15T14:30:12;14.93;;;13.43;;
2129;SDS011;1071;52.544;13.374;2022-11-15T14:32:43;20.73;;;16.42;;
2129;SDS011;1071;52.544;13.374;2022-11-15T14:35:14;15.77;;;14.18;;
2129;SDS011;1071;52.544;13.374;2022-11-15T14:37:44;16.23;;;14.52;;
2129;SDS011;1071;52.544;13.374;2022-11-15T14:40:12;20.67;;;15.18;;
2129;SDS011;1071;52.544;13.374;2022-11-15T14:42:41;18.05;;;16.00;;
2129;SDS011;1071;52.544;13.374;2022-11-15T14:45:10;19.08;;;17.00;;
2129;SDS011;1071;52.544;13.374;2022-11-15T14:47:41;16.83;;;15.13;;
2129;SDS011;1071;52.544;13.374;2022-11-15T14:50:12;16.75;;;14.52;;
2129;SDS011;1071;52.544;13.374;2022-11-15T14:52:41;14.60;;;13.20;;
2129;SDS011;1071;52.544;13.374;2022-11-15T14:55:13;16.27;;;14.65;;
2129;SDS011;1071;52.544;13.374;2022-11-15T14:57:44;20.83;;;16.58;;
2129;SDS011;1071;52.544;13.374;2022-11-15T15:00:13;20.92;;;18.75;;
2129;SDS011;1071;52.544;13.374;2022-11-15T15:02:43;18.80;;;16.90;;
2129;SDS011;1071;52.544;13.374;2022-11-15T15:05:15;21.20;;;18.45;;
2129;SDS011;1071;52.544;13.374;2022-11-15T15:07:43;23.02;;;19.48;;
2129;SDS011;1071;52.544;13.374;2022-11-15T15:10:11;22.30;;;20.00;;
2129;SDS011;1071;52.544;13.374;2022-11-15T15:12:40;24.33;;;21.83;;
2129;SDS011;1071;52.544;13.374;2022-11-15T15:15:11;27.63;;;22.33;;
2129;SDS011;1071;52.544;13.374;2022-11-15T15:17:41;20.33;;;18.25;;
2129;SDS011;1071;52.544;13.374;2022-11-15T15:20:09;20.15;;;16.50;;
2129;SDS011;1071;52.544;13.374;2022-11-15T15:22:37;19.80;;;15.77;;
2129;SDS011;1071;52.544;13.374;2022-11-15T15:25:14;19.23;;;17.23;;
2129;SDS011;1071;52.544;13.374;2022-11-15T15:27:47;23.55;;;19.05;;
2129;SDS011;1071;52.544;13.374;2022-11-15T15:30:15;18.88;;;16.95;;
2129;SDS011;1071;52.544;13.374;2022-11-15T15:32:44;18.25;;;15.82;;
2129;SDS011;1071;52.544;13.374;2022-11-15T15:35:12;22.33;;;18.33;;